createdAt,value
2023-04-07T00:00:43.480Z,8.60
2023-04-07T00:03:11.697Z,8.60
2023-04-07T00:05:39.892Z,8.60
2023-04-07T00:08:07.967Z,8.60
2023-04-07T00:10:36.264Z,8.70
2023-04-07T00:13:05.796Z,8.60
2023-04-07T00:15:33.924Z,8.60
2023-04-07T00:18:02.072Z,8.60
2023-04-07T00:20:30.204Z,8.50
2023-04-07T00:22:58.264Z,8.50
2023-04-07T00:25:26.369Z,8.50
2023-04-07T00:27:54.432Z,8.40
2023-04-07T00:30:23.963Z,8.40
2023-04-07T00:32:52.467Z,8.40
2023-04-07T00:35:20.981Z,8.30
2023-04-07T00:37:49.032Z,8.30
2023-04-07T00:40:18.301Z,8.30
2023-04-07T00:42:46.424Z,8.30
2023-04-07T00:45:14.503Z,8.30
2023-04-07T00:47:44.074Z,8.30
2023-04-07T00:50:12.627Z,8.30
2023-04-07T00:52:41.471Z,8.30
2023-04-07T00:55:10.418Z,8.30
2023-04-07T00:57:38.747Z,8.20
2023-04-07T01:00:08.640Z,8.20
2023-04-07T01:02:43.160Z,8.20
2023-04-07T01:05:17.862Z,8.20
2023-04-07T01:07:53.841Z,8.20
2023-04-07T01:10:28.991Z,8.20
2023-04-07T01:13:04.041Z,8.20
2023-04-07T01:15:34.608Z,8.10
2023-04-07T01:18:09.809Z,8.10
2023-04-07T01:20:40.734Z,8.20
2023-04-07T01:23:09.851Z,8.20
2023-04-07T01:26:12.242Z,8.20
2023-04-07T01:29:24.969Z,8.20
2023-04-07T01:31:56.829Z,8.20
2023-04-07T01:34:27.990Z,8.20
2023-04-07T01:36:57.558Z,8.20
2023-04-07T01:39:26.607Z,8.20
2023-04-07T01:41:55.483Z,8.30
2023-04-07T01:44:24.651Z,8.20
2023-04-07T01:46:55.131Z,8.20
2023-04-07T01:49:24.641Z,8.20
2023-04-07T01:51:53.088Z,8.20
2023-04-07T01:54:22.835Z,8.20
2023-04-07T01:56:50.990Z,8.20
2023-04-07T01:59:19.123Z,8.20
2023-04-07T02:01:47.402Z,8.10
2023-04-07T02:04:23.160Z,8.20
2023-04-07T02:06:55.686Z,8.10
2023-04-07T02:09:27.800Z,8.10
2023-04-07T02:11:59.505Z,8.10
2023-04-07T02:14:28.532Z,8.10
2023-04-07T02:16:58.244Z,8.10
2023-04-07T02:19:28.138Z,8.10
2023-04-07T02:21:57.180Z,8.10
2023-04-07T02:24:25.279Z,8.20
2023-04-07T02:26:53.364Z,8.20
2023-04-07T02:29:21.775Z,8.10
2023-04-07T02:31:49.953Z,8.10
2023-04-07T02:34:18.062Z,8.10
2023-04-07T02:36:47.517Z,8.10
2023-04-07T02:39:16.002Z,8.10
2023-04-07T02:41:44.087Z,8.10
2023-04-07T02:44:12.169Z,8.10
2023-04-07T02:46:41.427Z,8.10
2023-04-07T02:49:09.494Z,8.10
2023-04-07T02:51:37.681Z,8.10
2023-04-07T02:54:07.253Z,8.10
2023-04-07T02:56:35.334Z,8.10
2023-04-07T02:59:03.457Z,8.10
2023-04-07T03:06:52.265Z,8.10
2023-04-07T03:09:21.811Z,8.10
2023-04-07T03:11:49.876Z,8.10
2023-04-07T03:14:17.985Z,8.00
2023-04-07T03:16:46.134Z,8.00
2023-04-07T03:19:14.265Z,8.00
2023-04-07T03:21:42.437Z,8.00
2023-04-07T03:24:10.726Z,8.00
2023-04-07T03:26:40.139Z,8.00
2023-04-07T03:29:08.278Z,8.00
2023-04-07T03:31:37.646Z,8.00
2023-04-07T03:34:06.147Z,8.00
2023-04-07T03:36:34.194Z,8.00
2023-04-07T03:39:02.302Z,8.00
2023-04-07T03:41:30.753Z,8.00
2023-04-07T03:44:00.521Z,8.00
2023-04-07T03:46:28.616Z,8.00
2023-04-07T03:48:56.745Z,8.00
2023-04-07T03:51:24.920Z,8.00
2023-04-07T03:53:53.203Z,8.00
2023-04-07T03:56:22.518Z,8.00
2023-04-07T03:58:50.966Z,8.10
2023-04-07T04:01:20.670Z,8.10
2023-04-07T04:03:48.860Z,8.10
2023-04-07T04:06:17.057Z,8.10
2023-04-07T04:08:45.191Z,8.10
2023-04-07T04:11:13.428Z,8.10
2023-04-07T04:13:41.659Z,8.10
2023-04-07T04:16:09.999Z,8.00
2023-04-07T04:18:39.475Z,8.00
2023-04-07T04:21:09.218Z,8.00
2023-04-07T04:23:37.256Z,8.00
2023-04-07T04:26:05.412Z,8.00
2023-04-07T04:28:33.486Z,8.10
2023-04-07T04:31:01.571Z,8.00
2023-04-07T04:33:30.203Z,8.10
2023-04-07T04:35:59.628Z,8.10
2023-04-07T04:38:27.702Z,8.10
2023-04-07T04:40:55.732Z,8.10
2023-04-07T04:43:23.826Z,8.10
2023-04-07T04:45:52.158Z,8.10
2023-04-07T04:48:20.540Z,8.10
2023-04-07T04:50:48.587Z,8.10
2023-04-07T04:53:18.033Z,8.10
2023-04-07T04:55:48.195Z,8.10
2023-04-07T04:58:16.528Z,8.10
2023-04-07T05:00:44.601Z,8.10
2023-04-07T05:03:13.089Z,8.10
2023-04-07T05:05:41.362Z,8.10
2023-04-07T05:08:12.151Z,8.10
2023-04-07T05:10:41.896Z,8.10
2023-04-07T05:13:10.048Z,8.10
2023-04-07T05:15:38.100Z,8.10
2023-04-07T05:18:06.290Z,8.10
2023-04-07T05:20:34.357Z,8.10
2023-04-07T05:23:02.403Z,8.10
2023-04-07T05:25:30.500Z,8.10
2023-04-07T05:28:00.728Z,8.10
2023-04-07T05:30:28.780Z,8.10
2023-04-07T05:32:56.875Z,8.10
2023-04-07T05:35:25.021Z,8.10
2023-04-07T05:37:53.141Z,8.10
2023-04-07T05:40:21.268Z,8.20
2023-04-07T05:50:22.507Z,8.20
2023-04-07T05:52:50.633Z,8.20
2023-04-07T05:55:18.988Z,8.20
2023-04-07T05:57:47.546Z,8.20
2023-04-07T06:00:16.758Z,8.20
2023-04-07T06:02:45.034Z,8.20
2023-04-07T06:05:13.284Z,8.30
2023-04-07T06:07:42.796Z,8.30
2023-04-07T06:10:10.877Z,8.30
2023-04-07T06:12:39.020Z,8.40
2023-04-07T06:15:07.875Z,8.40
2023-04-07T06:17:40.239Z,8.30
2023-04-07T06:20:09.562Z,8.30
2023-04-07T06:22:37.647Z,8.40
2023-04-07T06:25:08.279Z,8.40
2023-04-07T06:27:37.214Z,8.40
2023-04-07T06:30:06.031Z,8.40
2023-04-07T06:32:34.668Z,8.30
2023-04-07T06:35:03.441Z,8.40
2023-04-07T06:37:31.628Z,8.40
2023-04-07T06:39:59.654Z,8.40
2023-04-07T06:42:29.031Z,8.40
2023-04-07T06:44:57.213Z,8.40
2023-04-07T06:47:25.388Z,8.40
2023-04-07T06:49:53.509Z,8.50
2023-04-07T06:52:21.755Z,8.50
2023-04-07T06:54:49.890Z,8.50
2023-04-07T06:57:18.038Z,8.50
2023-04-07T06:59:47.688Z,8.50
2023-04-07T07:02:16.081Z,8.50
2023-04-07T07:04:44.323Z,8.50
2023-04-07T07:07:12.451Z,8.60
2023-04-07T07:09:40.566Z,8.60
2023-04-07T07:12:08.864Z,8.50
2023-04-07T07:14:37.001Z,8.50
2023-04-07T07:17:06.839Z,8.50
2023-04-07T07:19:34.976Z,8.60
2023-04-07T07:22:04.340Z,8.60
2023-04-07T07:24:34.124Z,8.60
2023-04-07T07:27:03.544Z,8.70
2023-04-07T07:29:31.656Z,8.70
2023-04-07T07:31:59.693Z,8.90
2023-04-07T07:34:29.105Z,9.10
2023-04-07T07:36:57.195Z,9.30
2023-04-07T07:39:25.433Z,9.20
2023-04-07T07:41:53.611Z,9.30
2023-04-07T07:44:22.787Z,9.30
2023-04-07T07:46:51.540Z,9.30
2023-04-07T07:49:19.684Z,9.30
2023-04-07T07:51:49.150Z,9.30
2023-04-07T07:54:17.251Z,9.20
2023-04-07T07:56:45.349Z,9.20
2023-04-07T07:59:13.418Z,9.10
2023-04-07T08:01:41.517Z,9.30
2023-04-07T08:04:10.008Z,9.30
2023-04-07T08:06:38.584Z,9.50
2023-04-07T08:09:08.054Z,9.40
2023-04-07T08:11:36.162Z,9.30
2023-04-07T08:14:04.243Z,9.40
2023-04-07T08:16:32.479Z,9.50
2023-04-07T08:19:00.607Z,9.40
2023-04-07T08:21:29.106Z,9.30
2023-04-07T08:23:57.306Z,9.30
2023-04-07T08:26:26.757Z,9.20
2023-04-07T08:28:56.073Z,9.30
2023-04-07T08:31:24.163Z,9.40
2023-04-07T08:33:54.161Z,9.30
2023-04-07T08:36:22.488Z,9.30
2023-04-07T08:38:50.775Z,9.30
2023-04-07T08:41:26.621Z,9.20
2023-04-07T08:43:58.255Z,9.20
2023-04-07T08:46:27.336Z,9.10
2023-04-07T08:48:57.384Z,9.10
2023-04-07T08:51:29.702Z,9.20
2023-04-07T08:54:06.255Z,9.20
2023-04-07T08:56:35.167Z,9.20
2023-04-07T08:59:07.046Z,9.30
2023-04-07T09:09:07.373Z,9.50
2023-04-07T09:11:41.111Z,9.80
2023-04-07T09:14:10.905Z,10.00
2023-04-07T09:16:39.540Z,10.10
2023-04-07T09:19:07.857Z,10.20
2023-04-07T09:21:52.431Z,10.30
2023-04-07T09:24:24.423Z,10.30
2023-04-07T09:26:52.952Z,10.40
2023-04-07T09:29:22.644Z,10.30
2023-04-07T09:31:55.112Z,10.30
2023-04-07T09:34:28.240Z,10.20
2023-04-07T09:36:56.733Z,10.10
2023-04-07T09:39:25.230Z,10.10
2023-04-07T09:41:53.819Z,10.20
2023-04-07T09:44:23.852Z,10.20
2023-04-07T09:46:53.515Z,10.10
2023-04-07T09:49:21.848Z,10.00
2023-04-07T09:51:57.722Z,9.90
2023-04-07T09:54:37.615Z,9.90
2023-04-07T09:57:07.467Z,10.00
2023-04-07T09:59:38.327Z,10.20
2023-04-07T10:02:07.386Z,10.20
2023-04-07T10:04:37.524Z,10.10
2023-04-07T10:07:07.456Z,10.00
2023-04-07T10:09:35.585Z,9.90
2023-04-07T10:12:04.305Z,10.00
2023-04-07T10:14:33.576Z,9.90
2023-04-07T10:17:04.754Z,9.90
2023-04-07T10:19:34.467Z,9.90
2023-04-07T10:22:05.819Z,10.00
2023-04-07T10:24:47.138Z,10.00
2023-04-07T10:27:20.420Z,10.00
2023-04-07T10:29:51.472Z,10.10
2023-04-07T10:32:21.242Z,10.20
2023-04-07T10:35:02.192Z,10.10
2023-04-07T10:37:30.350Z,9.90
2023-04-07T10:40:29.635Z,9.90
2023-04-07T10:42:58.142Z,9.90
2023-04-07T10:45:53.625Z,9.90
2023-04-07T10:48:23.640Z,9.80
2023-04-07T10:51:16.657Z,9.80
2023-04-07T10:54:27.852Z,9.80
2023-04-07T10:57:10.326Z,9.90
2023-04-07T10:59:39.683Z,9.80
2023-04-07T11:02:33.889Z,9.70
2023-04-07T11:05:03.847Z,9.50
2023-04-07T11:07:55.048Z,9.50
2023-04-07T11:10:23.440Z,9.60
2023-04-07T11:13:15.745Z,9.60
2023-04-07T11:15:43.826Z,9.60
2023-04-07T11:18:19.706Z,9.60
2023-04-07T11:20:51.772Z,9.60
2023-04-07T11:23:21.016Z,9.70
2023-04-07T11:25:50.831Z,9.70
2023-04-07T11:28:19.323Z,9.70
2023-04-07T11:30:51.615Z,9.70
2023-04-07T11:33:21.484Z,9.80
2023-04-07T11:35:56.876Z,9.80
2023-04-07T11:38:27.381Z,9.80
2023-04-07T11:40:56.036Z,9.80
2023-04-07T11:43:27.258Z,9.80
2023-04-07T11:46:19.836Z,9.90
2023-04-07T11:48:48.524Z,9.80
2023-04-07T11:51:19.532Z,9.80
2023-04-07T11:53:48.418Z,9.80
2023-04-07T11:56:18.731Z,9.90
2023-04-07T11:58:50.879Z,10.00
2023-04-07T12:01:19.223Z,10.00
2023-04-07T12:03:58.923Z,9.90
2023-04-07T12:06:35.173Z,9.90
2023-04-07T12:09:03.871Z,9.90
2023-04-07T12:11:32.778Z,9.90
2023-04-07T12:14:01.392Z,9.90
2023-04-07T12:16:29.509Z,10.00
2023-04-07T12:18:57.875Z,10.10
2023-04-07T12:21:26.769Z,10.20
2023-04-07T12:23:56.193Z,10.10
2023-04-07T12:26:25.510Z,10.20
2023-04-07T12:28:53.783Z,10.30
2023-04-07T12:31:21.883Z,10.20
2023-04-07T12:33:50.263Z,10.30
2023-04-07T12:36:18.544Z,10.40
2023-04-07T12:38:50.129Z,10.30
2023-04-07T12:41:19.665Z,10.30
2023-04-07T12:43:48.036Z,10.30
2023-04-07T12:46:16.810Z,10.30
2023-04-07T12:48:45.877Z,10.40
2023-04-07T12:51:13.948Z,10.40
2023-04-07T12:53:42.096Z,10.30
2023-04-07T12:56:10.190Z,10.30
2023-04-07T12:58:39.806Z,10.40
2023-04-07T13:01:08.092Z,10.60
2023-04-07T13:03:37.307Z,10.60
2023-04-07T13:06:06.377Z,10.60
2023-04-07T13:08:34.557Z,10.80
2023-04-07T13:11:02.660Z,10.70
2023-04-07T13:13:31.681Z,10.60
2023-04-07T13:16:01.277Z,10.50
2023-04-07T13:18:29.462Z,10.50
2023-04-07T13:23:28.720Z,10.40
2023-04-07T13:25:56.865Z,10.30
2023-04-07T13:28:25.001Z,10.30
2023-04-07T13:30:53.117Z,10.20
2023-04-07T13:33:22.650Z,10.30
2023-04-07T13:35:50.879Z,10.30
2023-04-07T13:38:18.972Z,10.30
2023-04-07T13:40:49.610Z,10.30
2023-04-07T13:43:19.025Z,10.30
2023-04-07T13:45:47.520Z,10.30
2023-04-07T13:48:15.880Z,10.20
2023-04-07T13:50:45.333Z,10.20
2023-04-07T13:53:13.348Z,10.10
2023-04-07T13:55:41.740Z,10.10
2023-04-07T13:58:09.806Z,10.20
2023-04-07T14:00:38.503Z,10.20
2023-04-07T14:03:06.861Z,10.30
2023-04-07T14:05:35.815Z,10.30
2023-04-07T14:08:05.485Z,10.40
2023-04-07T14:10:34.017Z,10.40
2023-04-07T14:13:02.177Z,10.40
2023-04-07T14:15:30.276Z,10.40
2023-04-07T14:17:58.705Z,10.50
2023-04-07T14:20:27.390Z,10.60
2023-04-07T14:22:56.213Z,10.70
2023-04-07T14:25:27.007Z,10.70
2023-04-07T14:27:55.238Z,10.60
2023-04-07T14:30:23.480Z,10.70
2023-04-07T14:32:51.557Z,10.80
2023-04-07T14:35:19.670Z,10.70
2023-04-07T14:37:47.705Z,10.70
2023-04-07T14:40:15.778Z,10.70
2023-04-07T14:42:45.225Z,10.80
2023-04-07T14:45:13.901Z,10.70
2023-04-07T14:47:42.012Z,10.60
2023-04-07T14:50:10.691Z,10.60
2023-04-07T14:52:38.772Z,10.60
2023-04-07T14:55:07.913Z,10.70
2023-04-07T14:57:36.161Z,10.60
2023-04-07T15:00:07.512Z,10.60
2023-04-07T15:02:36.477Z,10.70
2023-04-07T15:05:05.174Z,10.60
2023-04-07T15:07:33.271Z,10.70
2023-04-07T15:10:01.504Z,10.70
2023-04-07T15:12:31.521Z,10.70
2023-04-07T15:14:59.561Z,10.80
2023-04-07T15:17:42.622Z,10.90
2023-04-07T15:20:13.264Z,11.00
2023-04-07T15:22:41.644Z,11.00
2023-04-07T15:25:09.903Z,10.90
2023-04-07T15:27:38.010Z,10.80
2023-04-07T15:30:06.782Z,10.90
2023-04-07T15:32:36.270Z,10.90
2023-04-07T15:35:04.478Z,10.90
2023-04-07T15:37:32.567Z,10.80
2023-04-07T15:40:00.593Z,10.70
2023-04-07T15:42:28.651Z,10.70
2023-04-07T15:44:56.697Z,10.70
2023-04-07T15:47:24.787Z,10.70
2023-04-07T15:49:54.211Z,10.70
2023-04-07T15:52:22.267Z,10.60
2023-04-07T15:54:50.391Z,10.50
2023-04-07T15:57:18.445Z,10.50
2023-04-07T15:59:46.524Z,10.40
2023-04-07T16:02:14.950Z,10.30
2023-04-07T16:04:44.648Z,10.30
2023-04-07T16:07:14.076Z,10.30
2023-04-07T16:09:42.176Z,10.30
2023-04-07T16:16:12.133Z,10.30
2023-04-07T16:18:40.330Z,10.30
2023-04-07T16:21:09.258Z,10.20
2023-04-07T16:23:38.705Z,10.20
2023-04-07T16:26:06.921Z,10.20
2023-04-07T16:28:34.988Z,10.20
2023-04-07T16:31:06.002Z,10.20
2023-04-07T16:33:34.020Z,10.10
2023-04-07T16:36:02.189Z,10.10
2023-04-07T16:38:30.299Z,10.10
2023-04-07T16:41:04.295Z,10.20
2023-04-07T16:43:32.745Z,10.20
2023-04-07T16:46:01.111Z,10.10
2023-04-07T16:48:30.234Z,10.10
2023-04-07T16:50:58.393Z,10.10
2023-04-07T16:53:26.530Z,10.10
2023-04-07T16:55:54.625Z,10.10
2023-04-07T16:58:27.169Z,10.10
2023-04-07T17:00:55.200Z,10.10
2023-04-07T17:03:23.555Z,10.10
2023-04-07T17:05:51.828Z,10.10
2023-04-07T17:08:20.119Z,10.10
2023-04-07T17:10:48.272Z,10.10
2023-04-07T17:13:20.766Z,10.10
2023-04-07T17:15:53.841Z,10.10
2023-04-07T17:18:21.950Z,10.00
2023-04-07T17:20:50.098Z,10.00
2023-04-07T17:23:18.566Z,9.90
2023-04-07T17:25:46.590Z,9.90
2023-04-07T17:28:14.662Z,9.90
2023-04-07T17:30:44.927Z,9.90
2023-04-07T17:40:59.791Z,9.90
2023-04-07T17:43:28.627Z,9.90
2023-04-07T17:45:56.881Z,9.80
2023-04-07T17:48:25.201Z,9.80
2023-04-07T17:50:53.263Z,9.70
2023-04-07T17:53:21.327Z,9.80
2023-04-07T17:55:50.002Z,9.70
2023-04-07T17:58:21.034Z,9.70
2023-04-07T18:00:50.533Z,9.70
2023-04-07T18:03:19.549Z,9.80
2023-04-07T18:05:49.190Z,9.80
2023-04-07T18:08:18.144Z,9.70
2023-04-07T18:10:46.280Z,9.70
2023-04-07T18:13:14.404Z,9.70
2023-04-07T18:15:43.920Z,9.70
2023-04-07T18:18:12.096Z,9.70
2023-04-07T18:20:40.207Z,9.60
2023-04-07T18:23:08.446Z,9.60
2023-04-07T18:25:39.183Z,9.60
2023-04-07T18:28:07.277Z,9.60
2023-04-07T18:30:35.460Z,9.50
2023-04-07T18:33:05.063Z,9.60
2023-04-07T18:35:33.295Z,9.50
2023-04-07T18:38:01.499Z,9.50
2023-04-07T18:40:32.701Z,9.40
2023-04-07T18:43:01.165Z,9.40
2023-04-07T18:45:29.266Z,9.30
2023-04-07T18:47:57.445Z,9.30
2023-04-07T18:50:28.704Z,9.30
2023-04-07T18:52:58.739Z,9.40
2023-04-07T18:55:27.144Z,9.30
2023-04-07T18:57:55.665Z,9.30
2023-04-07T19:00:23.823Z,9.20
2023-04-07T19:02:51.974Z,9.20
2023-04-07T19:05:22.985Z,9.20
2023-04-07T19:07:54.630Z,9.20
2023-04-07T19:10:22.927Z,9.20
2023-04-07T19:12:52.739Z,9.20
2023-04-07T19:15:22.983Z,9.20
2023-04-07T19:17:53.302Z,9.20
2023-04-07T19:20:21.544Z,9.20
2023-04-07T19:22:52.500Z,9.20
2023-04-07T19:25:29.861Z,9.20
2023-04-07T19:27:58.608Z,9.20
2023-04-07T19:30:26.776Z,9.20
2023-04-07T19:32:56.895Z,9.20
2023-04-07T19:35:25.034Z,9.10
2023-04-07T19:37:53.775Z,9.10
2023-04-07T19:40:23.463Z,9.10
2023-04-07T19:42:51.617Z,9.10
2023-04-07T19:45:22.961Z,9.10
2023-04-07T19:47:51.144Z,9.10
2023-04-07T19:50:19.928Z,9.00
2023-04-07T19:52:53.308Z,9.10
2023-04-07T19:55:24.719Z,9.10
2023-04-07T19:57:52.767Z,9.10
2023-04-07T20:00:21.094Z,9.00
2023-04-07T20:02:54.523Z,9.00
2023-04-07T20:05:22.914Z,9.00
2023-04-07T20:07:51.500Z,9.00
2023-04-07T20:10:23.702Z,9.00
2023-04-07T20:12:53.403Z,9.00
2023-04-07T20:15:23.626Z,9.00
2023-04-07T20:17:51.800Z,8.90
2023-04-07T20:20:20.113Z,8.90
2023-04-07T20:22:48.204Z,8.90
2023-04-07T20:25:16.317Z,8.90
2023-04-07T20:27:49.340Z,8.90
2023-04-07T20:30:18.003Z,8.90
2023-04-07T20:32:51.401Z,8.90
2023-04-07T20:35:24.151Z,8.80
2023-04-07T20:37:52.326Z,8.80
2023-04-07T20:40:20.518Z,8.80
2023-04-07T20:42:49.985Z,8.80
2023-04-07T20:45:19.367Z,8.70
2023-04-07T20:47:50.213Z,8.70
2023-04-07T20:50:18.492Z,8.70
2023-04-07T20:52:46.680Z,8.80
2023-04-07T20:55:17.578Z,8.70
2023-04-07T20:57:48.403Z,8.70
2023-04-07T21:00:22.935Z,8.70
2023-04-07T21:02:57.027Z,8.70
2023-04-07T21:05:28.410Z,8.70
2023-04-07T21:07:56.465Z,8.80
2023-04-07T21:10:27.619Z,8.70
2023-04-07T21:12:58.140Z,8.70
2023-04-07T21:15:27.617Z,8.70
2023-04-07T21:17:58.761Z,8.70
2023-04-07T21:20:31.076Z,8.70
2023-04-07T21:23:04.748Z,8.70
2023-04-07T21:25:34.452Z,8.70
2023-04-07T21:28:02.593Z,8.70
2023-04-07T21:30:32.649Z,8.80
2023-04-07T21:33:03.990Z,8.70
2023-04-07T21:35:32.159Z,8.70
2023-04-07T21:38:00.237Z,8.70
2023-04-07T21:40:31.437Z,8.70
2023-04-07T21:42:59.581Z,8.70
2023-04-07T21:45:28.040Z,8.70
2023-04-07T21:47:57.703Z,8.70
2023-04-07T21:50:28.046Z,8.70
2023-04-07T21:53:01.091Z,8.70
2023-04-07T21:55:35.770Z,8.70
2023-04-07T21:58:04.001Z,8.70
2023-04-07T22:00:32.147Z,8.70
2023-04-07T22:03:01.849Z,8.80
2023-04-07T22:05:30.212Z,8.80
2023-04-07T22:07:58.599Z,8.80
2023-04-07T22:10:27.125Z,8.80
2023-04-07T22:12:55.330Z,8.70
2023-04-07T22:15:23.563Z,8.70
2023-04-07T22:17:51.939Z,8.70
2023-04-07T22:20:21.450Z,8.60
2023-04-07T22:22:49.570Z,8.50
2023-04-07T22:25:17.786Z,8.50
2023-04-07T22:27:48.298Z,8.40
2023-04-07T22:30:18.877Z,8.40
2023-04-07T22:32:48.066Z,8.40
2023-04-07T22:42:49.543Z,8.40
2023-04-07T22:45:20.339Z,8.40
2023-04-07T22:47:48.538Z,8.40
2023-04-07T22:50:16.792Z,8.40
2023-04-07T22:52:44.853Z,8.30
2023-04-07T22:55:12.914Z,8.30
2023-04-07T22:57:41.163Z,8.30
2023-04-07T23:00:11.630Z,8.30
2023-04-07T23:02:39.877Z,8.30
2023-04-07T23:05:10.383Z,8.30
2023-04-07T23:07:38.627Z,8.30
2023-04-07T23:10:08.072Z,8.40
2023-04-07T23:12:37.891Z,8.40
2023-04-07T23:15:06.756Z,8.50
2023-04-07T23:17:36.840Z,8.40
2023-04-07T23:20:05.398Z,8.30
2023-04-07T23:22:33.449Z,8.30
2023-04-07T23:28:52.501Z,8.40
2023-04-07T23:31:20.645Z,8.40
2023-04-07T23:33:50.419Z,8.40
2023-04-07T23:36:18.556Z,8.30
2023-04-07T23:38:47.023Z,8.40
2023-04-07T23:41:15.519Z,8.40
2023-04-07T23:43:43.550Z,8.30
2023-04-07T23:46:11.715Z,8.30
2023-04-07T23:48:39.797Z,8.30
2023-04-07T23:51:09.403Z,8.20
2023-04-07T23:53:37.437Z,8.20
2023-04-07T23:56:05.911Z,8.10
2023-04-07T23:58:33.938Z,8.10
